Latest Weather Observations for Warra

IDT60801

Issued at 2:05 am EST Thursday 17 April 2014 (issued every 30 minutes, with the page automatically refreshed every 10 minutes)

About weather observations | Map of weather stations | Latest weather observations for TAS | Other Formats
Station Details ID: 097024 Name: WARRA Lat: -43.06 Lon: 146.70 Height: 495.0 m
Data from the previous 72 hours. | See also: Recent months at Warra
Date/Time
EST
Temp
°C
App
Temp
°C
Dew
Point
Rel
Hum
%
Delta-T
°C
Wind Press
QNH
hPa
Press
MSL
hPa
Rain
since 9 am
mm
Dir
 
Spd
km/h
Gust
km/h
Spd
kts
Gust
kts
17/02:00am 5.5 3.3 5.5 100 0.0 WSW 6 7 3 4 - - 0.0
17/01:30am 6.2 5.3 6.2 100 0.0 N 0 0 0 0 - - 0.0
17/01:00am 6.0 5.1 6.0 100 0.0 CALM 0 0 0 0 - - 0.0
17/12:30am 5.8 3.5 5.8 100 0.0 W 7 9 4 5 - - 0.0
17/12:00am 6.4 4.2 6.4 100 0.0 W 7 9 4 5 - - 0.0
 
Date/Time
EST
Temp
°C
App
Temp
°C
Dew
Point
Rel
Hum
%
Delta-T
°C
Wind Press
QNH
hPa
Press
MSL
hPa
Rain
since 9 am
mm
Dir
 
Spd
km/h
Gust
km/h
Spd
kts
Gust
kts
16/11:30pm 6.3 4.1 6.3 100 0.0 W 7 9 4 5 - - 0.0
16/11:00pm 6.0 3.8 6.0 100 0.0 W 7 9 4 5 - - 0.0
16/10:30pm 6.6 4.5 6.6 100 0.0 W 7 9 4 5 - - 0.0
16/10:00pm 6.3 3.7 6.3 100 0.0 WSW 9 9 5 5 - - 0.0
16/09:30pm 6.5 4.4 6.5 100 0.0 WSW 7 9 4 5 - - 0.0
16/09:00pm 6.5 4.9 6.5 100 0.0 WSW 4 7 2 4 - - 0.0
16/08:30pm 7.7 7.2 7.7 100 0.0 CALM 0 4 0 2 - - 0.0
16/08:00pm 8.3 7.2 8.3 100 0.0 NNE 4 7 2 4 - - 0.0
16/07:30pm 6.5 5.6 6.2 98 0.1 CALM 0 0 0 0 - - 0.0
16/07:00pm 7.3 5.4 6.7 96 0.3 NNW 6 7 3 4 - - 0.0
16/06:30pm 7.1 6.2 6.0 93 0.5 CALM 0 0 0 0 - - 0.0
16/06:00pm 7.6 6.7 5.9 89 0.8 CALM 0 0 0 0 - - 0.0
16/05:30pm 9.4 8.7 7.0 85 1.2 CALM 0 0 0 0 - - 0.0
16/05:00pm 11.9 11.5 8.4 79 1.8 CALM 0 0 0 0 - - 0.0
16/04:30pm 13.8 12.0 7.3 65 3.3 ENE 6 9 3 5 - - 0.0
16/04:00pm 14.4 12.6 7.9 65 3.3 ENE 7 9 4 5 - - 0.0
16/03:30pm 14.6 12.9 8.3 66 3.2 E 7 11 4 6 - - 0.0
16/03:00pm 14.8 13.1 8.3 65 3.4 ESE 7 9 4 5 - - 0.0
16/02:30pm 14.9 13.3 7.9 63 3.6 ENE 6 11 3 6 - - 0.0
16/02:00pm 15.2 13.3 7.7 61 3.8 ENE 7 11 4 6 - - 0.0
16/01:30pm 14.8 13.0 7.8 63 3.6 NE 7 13 4 7 - - 0.0
16/01:00pm 14.2 12.4 7.9 66 3.2 NE 7 11 4 6 - - 0.0
16/12:30pm 14.7 12.5 7.7 63 3.6 NE 9 15 5 8 - - 0.0
16/12:00pm 13.4 11.5 7.6 68 2.9 NE 7 11 4 6 - - 0.0
16/11:30am 13.6 11.2 7.2 65 3.2 NE 9 13 5 7 - - 0.0
16/11:00am 13.0 10.9 8.1 72 2.5 NNE 9 13 5 7 - - 0.0
16/10:30am 12.6 9.9 7.3 70 2.6 NNE 11 15 6 8 - - 0.0
16/10:00am 11.8 9.6 7.7 76 2.0 NNE 9 11 5 6 - - 0.0
16/09:30am 10.5 9.0 8.3 86 1.1 E 6 7 3 4 - - 0.0
16/09:00am 9.2 9.0 9.1 99 0.1 CALM 0 0 0 0 - - 0.0
16/08:30am 8.7 8.0 8.7 100 0.0 NE 2 6 1 3 - - 0.0
16/08:00am 7.8 7.3 7.8 100 0.0 CALM 0 0 0 0 - - 0.0
16/07:30am 5.4 3.6 5.4 100 0.0 NW 4 7 2 4 - - 0.0
16/07:00am 2.9 0.2 2.9 100 0.0 WSW 6 9 3 5 - - 0.0
16/06:30am 3.2 1.7 3.2 100 0.0 CALM 0 0 0 0 - - 0.0
16/06:00am 2.9 0.6 2.9 100 0.0 N 4 6 2 3 - - 0.0
16/05:30am 2.8 0.5 2.8 100 0.0 WSW 4 6 2 3 - - 0.0
16/05:00am 2.5 0.9 2.5 100 0.0 CALM 0 0 0 0 - - 0.0
16/04:30am 2.6 -0.1 2.6 100 0.0 WSW 6 7 3 4 - - 0.0
16/04:00am 2.7 0.8 2.7 100 0.0 W 2 9 1 5 - - 0.0
16/03:30am 2.7 1.1 2.7 100 0.0 CALM 0 0 0 0 - - 0.0
16/03:00am 2.6 1.0 2.6 100 0.0 CALM 0 0 0 0 - - 0.0
16/02:30am 2.5 0.9 2.5 100 0.0 CALM 0 0 0 0 - - 0.0
16/02:00am 3.0 1.5 3.0 100 0.0 CALM 0 0 0 0 - - 0.0
16/01:30am 2.9 1.4 2.9 100 0.0 CALM 0 0 0 0 - - 0.0
16/01:00am 2.9 1.4 2.9 100 0.0 CALM 0 0 0 0 - - 0.0
16/12:30am 2.9 0.6 2.9 100 0.0 WNW 4 9 2 5 - - 0.0
16/12:00am 3.2 0.6 3.2 100 0.0 WNW 6 7 3 4 - - 0.0
 
Date/Time
EST
Temp
°C
App
Temp
°C
Dew
Point
Rel
Hum
%
Delta-T
°C
Wind Press
QNH
hPa
Press
MSL
hPa
Rain
since 9 am
mm
Dir
 
Spd
km/h
Gust
km/h
Spd
kts
Gust
kts
15/11:30pm 3.4 1.6 3.4 100 0.0 W 2 7 1 4 - - 0.0
15/11:00pm 3.7 2.3 3.7 100 0.0 CALM 0 0 0 0 - - 0.0
15/10:30pm 3.4 0.8 3.4 100 0.0 NNW 6 7 3 4 - - 0.0
15/10:00pm 3.6 1.1 3.5 99 0.0 NNW 6 7 3 4 - - 0.0
15/09:30pm 4.5 2.1 4.4 99 0.0 NNE 6 7 3 4 - - 0.0
15/09:00pm 5.4 3.1 5.0 97 0.2 NNE 6 7 3 4 - - 0.0
15/08:30pm 6.3 3.9 5.1 92 0.5 ENE 7 11 4 6 - - 0.0
15/08:00pm 6.6 4.2 5.2 91 0.6 NNE 7 11 4 6 - - 0.0
15/07:30pm 6.4 4.1 5.0 91 0.6 ENE 6 9 3 5 - - 0.0
15/07:00pm 7.1 4.9 6.0 93 0.5 NE 7 9 4 5 - - 0.0
15/06:30pm 7.5 5.2 5.8 89 0.8 NE 7 11 4 6 - - 0.0
15/06:00pm 8.4 6.2 6.2 86 1.0 ENE 7 9 4 5 - - 0.0
15/05:30pm 9.0 6.8 6.4 84 1.2 ENE 7 11 4 6 - - 0.0
15/05:00pm 9.7 7.5 6.4 80 1.6 NE 7 11 4 6 - - 0.0
15/04:30pm 10.6 8.6 6.9 78 1.8 NE 7 11 4 6 - - 0.0
15/04:00pm 10.9 9.0 6.8 76 2.0 SE 6 9 3 5 - - 0.0
15/03:30pm 11.0 8.9 6.6 74 2.1 E 7 11 4 6 - - 0.0
15/03:00pm 10.6 8.5 6.6 76 1.9 ESE 7 11 4 6 - - 0.0
15/02:30pm 11.1 8.5 6.3 72 2.3 E 9 15 5 8 - - 0.0
15/02:00pm 11.3 8.8 6.6 73 2.3 ESE 9 15 5 8 - - 0.0
15/01:30pm 11.1 9.1 7.0 76 2.0 E 7 11 4 6 - - 0.0
15/01:00pm 10.0 8.3 7.4 84 1.3 E 6 9 3 5 - - 0.0
15/12:30pm 9.7 7.9 7.8 88 0.9 E 7 13 4 7 - - 0.0
15/12:00pm 9.5 7.4 8.3 92 0.6 E 9 15 5 8 - - 0.0
15/11:30am 9.2 7.4 7.8 91 0.7 ENE 7 13 4 7 - - 0.0
15/11:00am 9.1 7.2 7.5 90 0.8 ENE 7 11 4 6 - - 0.0
15/10:30am 9.5 7.3 7.9 90 0.8 ESE 9 11 5 6 - - 0.0
15/10:00am 9.2 7.4 7.8 91 0.7 ENE 7 13 4 7 - - 0.0
15/09:30am 8.8 7.5 7.7 93 0.5 E 4 9 2 5 - - 0.0
15/09:00am 8.1 6.9 8.1 100 0.0 NNE 4 7 2 4 - - 4.2
15/08:30am 7.7 7.2 7.7 100 0.0 CALM 0 0 0 0 - - 4.2
15/08:00am 7.3 6.7 7.3 100 0.0 CALM 0 4 0 2 - - 4.2
15/07:30am 7.1 6.0 7.1 100 0.0 NNE 2 6 1 3 - - 4.2
15/07:00am 6.9 5.4 6.9 100 0.0 NE 4 7 2 4 - - 4.2
15/06:30am 6.9 5.4 6.9 100 0.0 ENE 4 6 2 3 - - 4.2
15/06:00am 7.1 6.4 7.1 100 0.0 CALM 0 0 0 0 - - 4.0
15/05:30am 7.2 6.2 7.2 100 0.0 E 2 7 1 4 - - 4.0
15/05:00am 7.2 5.8 7.2 100 0.0 NE 4 9 2 5 - - 4.0
15/04:30am 7.3 5.3 7.3 100 0.0 NNE 7 7 4 4 - - 4.0
15/04:00am 7.4 5.7 7.4 100 0.0 NNE 6 9 3 5 - - 4.0
15/03:30am 7.5 6.9 7.5 100 0.0 CALM 0 0 0 0 - - 4.0
15/03:00am 7.5 6.2 7.5 100 0.0 ENE 4 11 2 6 - - 4.0
15/02:30am 7.5 6.9 7.5 100 0.0 CALM 0 0 0 0 - - 4.0
15/02:00am 7.4 6.4 7.4 100 0.0 ESE 2 7 1 4 - - 4.0
15/01:30am 7.5 6.5 7.5 100 0.0 ESE 2 7 1 4 - - 4.0
15/01:00am 7.4 6.0 7.4 100 0.0 E 4 7 2 4 - - 4.0
15/12:30am 7.7 6.8 7.7 100 0.0 E 2 7 1 4 - - 4.0
15/12:00am 7.6 5.7 7.6 100 0.0 E 7 13 4 7 - - 3.8
 
Date/Time
EST
Temp
°C
App
Temp
°C
Dew
Point
Rel
Hum
%
Delta-T
°C
Wind Press
QNH
hPa
Press
MSL
hPa
Rain
since 9 am
mm
Dir
 
Spd
km/h
Gust
km/h
Spd
kts
Gust
kts
14/11:30pm 7.7 6.0 7.7 100 0.0 ESE 6 9 3 5 - - 3.8
14/11:00pm 7.8 6.2 7.8 100 0.0 E 6 9 3 5 - - 3.8
14/10:30pm 8.0 6.4 8.0 100 0.0 ESE 6 9 3 5 - - 3.4
14/10:00pm 8.1 6.9 8.1 100 0.0 ESE 4 9 2 5 - - 3.4
14/09:30pm 8.2 7.0 8.2 100 0.0 NE 4 7 2 4 - - 3.2
14/09:00pm 8.2 6.5 8.2 100 0.0 E 7 11 4 6 - - 3.2
14/08:30pm 8.3 6.2 8.3 100 0.0 ESE 9 13 5 7 - - 2.8
14/08:00pm 8.6 7.0 8.6 100 0.0 ESE 7 11 4 6 - - 2.6
14/07:30pm 8.7 7.1 8.7 100 0.0 E 7 13 4 7 - - 2.2
14/07:00pm 8.9 7.3 8.9 100 0.0 ESE 7 11 4 6 - - 2.0
14/06:30pm 9.3 8.0 9.3 100 0.0 ESE 6 11 3 6 - - 1.6
14/06:00pm 9.5 8.3 9.5 100 0.0 SE 6 11 3 6 - - 0.8
14/05:30pm 9.8 8.1 9.8 100 0.0 SE 9 13 5 7 - - 0.6
14/05:00pm 10.2 8.6 10.2 100 0.0 SE 9 13 5 7 - - 0.2
14/04:30pm 10.8 9.7 10.6 99 0.1 ESE 7 11 4 6 - - 0.0
14/04:00pm 11.2 10.1 10.6 96 0.3 ESE 7 13 4 7 - - 0.0
14/03:30pm 11.8 10.7 10.7 93 0.6 SE 7 13 4 7 - - 0.0
14/03:00pm 12.2 10.8 10.8 91 0.7 ESE 9 17 5 9 - - 0.0
14/02:30pm 14.3 12.7 10.3 77 2.1 ESE 9 13 5 7 - - 0.0
14/02:00pm 14.6 12.8 9.4 71 2.7 SW 9 15 5 8 - - 0.0
14/01:30pm 15.0 13.3 9.8 71 2.8 W 9 15 5 8 - - 0.0
14/01:00pm 14.4 13.3 10.6 78 2.0 WSW 7 11 4 6 - - 0.0
14/12:30pm 13.8 12.4 8.8 72 2.6 S 6 13 3 7 - - 0.0
14/12:00pm 13.9 12.8 10.1 78 2.0 NNW 6 11 3 6 - - 0.0
14/11:30am 13.5 12.7 9.7 78 2.0 SW 4 11 2 6 - - 0.0
14/11:00am 13.7 12.5 9.4 75 2.3 W 6 13 3 7 - - 0.0
14/10:30am 12.6 11.6 10.3 86 1.2 N 6 13 3 7 - - 0.0
14/10:00am 12.7 12.6 10.8 88 1.0 ENE 2 6 1 3 - - 0.0
14/09:30am 11.9 10.9 10.3 90 0.8 E 6 9 3 5 - - 0.0
14/09:00am 11.6 10.4 10.2 91 0.7 W 7 11 4 6 - - 0.0
14/08:30am 10.5 9.3 10.2 98 0.2 W 7 13 4 7 - - 0.0
14/08:00am 9.8 8.7 9.8 100 0.0 SW 6 9 3 5 - - 0.0
14/07:30am 9.5 8.3 9.5 100 0.0 W 6 7 3 4 - - 0.0
14/07:00am 9.1 8.9 9.1 100 0.0 CALM 0 0 0 0 - - 0.0
14/06:30am 8.8 8.5 8.8 100 0.0 CALM 0 0 0 0 - - 0.0
14/06:00am 9.1 8.9 9.1 100 0.0 CALM 0 0 0 0 - - 0.0
14/05:30am 9.4 9.3 9.4 100 0.0 CALM 0 4 0 2 - - 0.0
14/05:00am 9.3 9.1 9.2 99 0.1 CALM 0 0 0 0 - - 0.0
14/04:30am 9.0 8.8 8.9 99 0.1 CALM 0 0 0 0 - - 0.0
14/04:00am 9.2 7.8 8.9 98 0.2 WNW 6 7 3 4 - - 0.0
14/03:30am 9.7 8.3 9.6 99 0.1 WNW 7 13 4 7 - - 0.0
14/03:00am 9.6 7.5 9.6 100 0.0 W 11 17 6 9 - - 0.0
14/02:30am 9.4 8.0 9.4 100 0.0 W 7 13 4 7 - - 0.0

Other Formats:

Comma delimited format used in spreadsheet applications
http://www.bom.gov.au/fwo/IDT60801/IDT60801.95962.axf

JavaScript Object Notation format (JSON) in row-major order
http://www.bom.gov.au/fwo/IDT60801/IDT60801.95962.json